Time;durP1;ratioP1;P1;durP2;ratioP2;P2;SDS_P1;SDS_P2;PMS_P1;PMS_P2;Temp;Humidity;BMP_temperature;BMP_pressure;BME280_temperature;BME280_humidity;BME280_pressure;Samples;Min_cycle;Max_cycle;Signal;HPM_P1;HPM_P2
2023/02/08 00:01:59;;;;;;;;;;;;;;;;;;4981680;28;19922;-77
2023/02/08 00:04:26;;;;;;;;;;;;;;;;;;4969553;28;20374;-76
2023/02/08 00:06:52;;;;;;;;;;;;;;;;;;4976430;28;19922;-78
2023/02/08 00:09:18;;;;;;;;;;;;;;;;;;4969613;28;20330;-78
2023/02/08 00:11:44;;;;;;;;;;;;;;;;;;4965161;28;20310;-77
2023/02/08 00:14:11;;;;;;;;;;;;;;;;;;4971052;28;19918;-79
2023/02/08 00:16:37;;;;;;;;;;;;;;;;;;4970124;28;19926;-78
2023/02/08 00:19:03;;;;;;;;;;;;;;;;;;4962751;28;19973;-78
2023/02/08 00:21:29;;;;;;;;;;;;;;;;;;4967187;28;19929;-77
2023/02/08 00:23:58;;;;;;;;;;;;;;;;;;4950794;28;21703;-76
2023/02/08 00:26:24;;;;;;;;;;;;;;;;;;4945120;28;19922;-76
2023/02/08 00:28:50;;;;;;;;;;;;;;;;;;4960704;28;19922;-76
2023/02/08 00:31:16;;;;;;;;;;;;;;;;;;4951313;28;19946;-75
2023/02/08 00:33:43;;;;;;;;;;;;;;;;;;4957968;28;20388;-75
2023/02/08 00:36:09;;;;;;;;;;;;;;;;;;4965867;28;19915;-77
2023/02/08 00:38:35;;;;;;;;;;;;;;;;;;4962041;28;19918;-77
2023/02/08 00:41:01;;;;;;;;;;;;;;;;;;4946723;28;19914;-76
2023/02/08 00:43:28;;;;;;;;;;;;;;;;;;4928925;28;19929;-76
2023/02/08 00:45:54;;;;;;;;;;;;;;;;;;4944117;28;19922;-76
2023/02/08 00:48:20;;;;;;;;;;;;;;;;;;4930704;28;19922;-75
2023/02/08 00:50:46;;;;;;;;;;;;;;;;;;4964257;28;20506;-76
2023/02/08 00:53:13;;;;;;;;;;;;;;;;;;4947133;28;19927;-77
2023/02/08 00:55:39;;;;;;;;;;;;;;;;;;4949833;28;19945;-77
2023/02/08 00:58:05;;;;;;;;;;;;;;;;;;4945979;28;19929;-78
2023/02/08 01:00:31;;;;;;;;;;;;;;;;;;4958327;28;19914;-77
2023/02/08 01:02:58;;;;;;;;;;;;;;;;;;4948585;28;19993;-77
2023/02/08 01:05:24;;;;;;;;;;;;;;;;;;4960473;28;19922;-78
2023/02/08 01:07:50;;;;;;;;;;;;;;;;;;4948257;28;19918;-77
2023/02/08 01:10:16;;;;;;;;;;;;;;;;;;4945021;28;19914;-78
2023/02/08 01:12:42;;;;;;;;;;;;;;;;;;4944751;28;19918;-77
2023/02/08 01:15:09;;;;;;;;;;;;;;;;;;4950704;28;19957;-78
2023/02/08 01:17:35;;;;;;;;;;;;;;;;;;4954561;28;19973;-77
2023/02/08 01:20:01;;;;;;;;;;;;;;;;;;4955309;28;20417;-77
2023/02/08 01:22:27;;;;;;;;;;;;;;;;;;4965108;28;19961;-77
2023/02/08 01:24:54;;;;;;;;;;;;;;;;;;4966184;28;20378;-77
2023/02/08 01:27:20;;;;;;;;;;;;;;;;;;4958887;28;19922;-77
2023/02/08 01:29:46;;;;;;;;;;;;;;;;;;4949475;28;19945;-77
2023/02/08 01:32:12;;;;;;;;;;;;;;;;;;4946523;28;19989;-77
2023/02/08 01:34:38;;;;;;;;;;;;;;;;;;4930532;28;19922;-77
2023/02/08 01:37:05;;;;;;;;;;;;;;;;;;4955107;28;19926;-77
2023/02/08 01:39:31;;;;;;;;;;;;;;;;;;4954788;28;19977;-77
2023/02/08 01:41:57;;;;;;;;;;;;;;;;;;4949780;28;19991;-78
2023/02/08 01:44:23;;;;;;;;;;;;;;;;;;4958211;28;19926;-77
2023/02/08 01:46:50;;;;;;;;;;;;;;;;;;4954865;28;19926;-77
2023/02/08 01:49:16;;;;;;;;;;;;;;;;;;4938408;28;19918;-77
2023/02/08 01:51:42;;;;;;;;;;;;;;;;;;4953671;28;20080;-77
2023/02/08 01:54:09;;;;;;;;;;;;;;;;;;4962257;28;20656;-77
2023/02/08 01:56:35;;;;;;;;;;;;;;;;;;4971181;28;19981;-77
2023/02/08 01:59:01;;;;;;;;;;;;;;;;;;4950283;28;19914;-77
2023/02/08 02:01:28;;;;;;;;;;;;;;;;;;4976290;28;19922;-77
2023/02/08 02:03:54;;;;;;;;;;;;;;;;;;4941293;28;19929;-77
2023/02/08 02:06:20;;;;;;;;;;;;;;;;;;4953052;28;19914;-75
2023/02/08 02:08:46;;;;;;;;;;;;;;;;;;4967754;28;19929;-77
2023/02/08 02:11:12;;;;;;;;;;;;;;;;;;4963605;28;19922;-76
2023/02/08 02:13:39;;;;;;;;;;;;;;;;;;4947435;28;19933;-78
2023/02/08 02:16:05;;;;;;;;;;;;;;;;;;4963655;28;19926;-77
2023/02/08 02:18:31;;;;;;;;;;;;;;;;;;4957500;28;19985;-77
2023/02/08 02:20:57;;;;;;;;;;;;;;;;;;4949785;28;20445;-77
2023/02/08 02:23:23;;;;;;;;;;;;;;;;;;4944859;28;19954;-77
2023/02/08 02:25:50;;;;;;;;;;;;;;;;;;4951014;28;19926;-77
2023/02/08 02:28:16;;;;;;;;;;;;;;;;;;4950796;28;19930;-77
2023/02/08 02:30:42;;;;;;;;;;;;;;;;;;4945383;28;19918;-76
2023/02/08 02:33:08;;;;;;;;;;;;;;;;;;4966472;28;19929;-77
2023/02/08 02:35:35;;;;;;;;;;;;;;;;;;4951047;28;19926;-77
2023/02/08 02:38:01;;;;;;;;;;;;;;;;;;4945309;28;20546;-76
2023/02/08 02:40:27;;;;;;;;;;;;;;;;;;4971198;28;19918;-79
2023/02/08 02:45:38;;;;;;;;;;;;;;;;;;4971671;28;19914;-76
2023/02/08 02:48:05;;;;;;;;;;;;;;;;;;4945232;28;19941;-76
2023/02/08 02:50:31;;;;;;;;;;;;;;;;;;4974790;28;19965;-76
2023/02/08 02:52:57;;;;;;;;;;;;;;;;;;4957523;28;19922;-76
2023/02/08 02:55:23;;;;;;;;;;;;;;;;;;4952915;28;19935;-75
2023/02/08 02:57:50;;;;;;;;;;;;;;;;;;4951463;28;20363;-75
2023/02/08 03:00:16;;;;;;;;;;;;;;;;;;4954623;28;20405;-77
2023/02/08 03:02:43;;;;;;;;;;;;;;;;;;4945613;28;19915;-77
2023/02/08 03:05:10;;;;;;;;;;;;;;;;;;4943445;28;19973;-76
2023/02/08 03:07:37;;;;;;;;;;;;;;;;;;4954022;28;19914;-76
2023/02/08 03:10:03;;;;;;;;;;;;;;;;;;4958235;28;19922;-77
2023/02/08 03:12:30;;;;;;;;;;;;;;;;;;4951726;28;19961;-77
2023/02/08 03:14:56;;;;;;;;;;;;;;;;;;4951271;28;19929;-77
2023/02/08 03:17:22;;;;;;;;;;;;;;;;;;4972012;28;19925;-77
2023/02/08 03:19:48;;;;;;;;;;;;;;;;;;4971142;28;19913;-77
2023/02/08 03:22:15;;;;;;;;;;;;;;;;;;4974936;28;19918;-77
2023/02/08 03:24:41;;;;;;;;;;;;;;;;;;4984472;28;19972;-77
2023/02/08 03:27:07;;;;;;;;;;;;;;;;;;4987629;28;20005;-77
2023/02/08 03:29:33;;;;;;;;;;;;;;;;;;4984165;28;19922;-76
2023/02/08 03:32:00;;;;;;;;;;;;;;;;;;4967581;28;19918;-76
2023/02/08 03:34:26;;;;;;;;;;;;;;;;;;4981030;28;19925;-77
2023/02/08 03:36:52;;;;;;;;;;;;;;;;;;4976910;28;20568;-77
2023/02/08 03:39:19;;;;;;;;;;;;;;;;;;4974113;28;19929;-78
2023/02/08 03:41:46;;;;;;;;;;;;;;;;;;4964137;28;19976;-76
2023/02/08 03:44:12;;;;;;;;;;;;;;;;;;4972643;28;19988;-76
2023/02/08 03:46:38;;;;;;;;;;;;;;;;;;4971266;28;19918;-76
2023/02/08 03:49:04;;;;;;;;;;;;;;;;;;4972792;28;20036;-76
2023/02/08 03:51:30;;;;;;;;;;;;;;;;;;4977676;28;20508;-76
2023/02/08 03:53:57;;;;;;;;;;;;;;;;;;4967151;28;20676;-75
2023/02/08 03:56:23;;;;;;;;;;;;;;;;;;4966542;28;19930;-76
2023/02/08 03:58:49;;;;;;;;;;;;;;;;;;4960796;28;19922;-75
2023/02/08 04:01:15;;;;;;;;;;;;;;;;;;4971248;28;19924;-76
2023/02/08 04:03:42;;;;;;;;;;;;;;;;;;4967402;28;19917;-77
2023/02/08 04:06:08;;;;;;;;;;;;;;;;;;4975903;28;20448;-76
2023/02/08 04:08:34;;;;;;;;;;;;;;;;;;4962195;28;19930;-75
2023/02/08 04:11:00;;;;;;;;;;;;;;;;;;4990378;28;19996;-75
2023/02/08 04:13:27;;;;;;;;;;;;;;;;;;4965285;28;19968;-75
2023/02/08 04:15:53;;;;;;;;;;;;;;;;;;4971789;28;20476;-75
2023/02/08 04:18:19;;;;;;;;;;;;;;;;;;4977003;28;19980;-75
2023/02/08 04:20:45;;;;;;;;;;;;;;;;;;4963561;28;19932;-75
2023/02/08 04:23:11;;;;;;;;;;;;;;;;;;4968050;28;19925;-75
2023/02/08 04:25:38;;;;;;;;;;;;;;;;;;4979611;28;19917;-75
2023/02/08 04:28:04;;;;;;;;;;;;;;;;;;4957757;28;20329;-75
2023/02/08 04:30:30;;;;;;;;;;;;;;;;;;4983240;28;19918;-76
2023/02/08 04:32:58;;;;;;;;;;;;;;;;;;4981009;28;20345;-76
2023/02/08 04:35:25;;;;;;;;;;;;;;;;;;4979204;28;19936;-75
2023/02/08 04:37:51;;;;;;;;;;;;;;;;;;4964491;28;19965;-76
2023/02/08 04:40:17;;;;;;;;;;;;;;;;;;4989148;28;20058;-75
2023/02/08 04:42:43;;;;;;;;;;;;;;;;;;4969075;28;20182;-75
2023/02/08 04:45:09;;;;;;;;;;;;;;;;;;4979575;28;19949;-76
2023/02/08 04:47:36;;;;;;;;;;;;;;;;;;4967088;28;19922;-77
2023/02/08 04:50:02;;;;;;;;;;;;;;;;;;4977416;28;19968;-78
2023/02/08 04:52:28;;;;;;;;;;;;;;;;;;4959192;28;20317;-80
2023/02/08 04:54:54;;;;;;;;;;;;;;;;;;4960807;28;19964;-79
2023/02/08 04:57:21;;;;;;;;;;;;;;;;;;4978819;28;19926;-79
2023/02/08 04:59:47;;;;;;;;;;;;;;;;;;4969151;28;19936;-78
2023/02/08 05:02:13;;;;;;;;;;;;;;;;;;4980681;28;19922;-80
2023/02/08 05:04:39;;;;;;;;;;;;;;;;;;4960614;28;19925;-80
2023/02/08 05:07:05;;;;;;;;;;;;;;;;;;4971763;28;19922;-79
2023/02/08 05:09:32;;;;;;;;;;;;;;;;;;4970568;28;20020;-80
2023/02/08 05:11:58;;;;;;;;;;;;;;;;;;4971745;28;19918;-79
2023/02/08 05:14:25;;;;;;;;;;;;;;;;;;4984460;28;19933;-79
2023/02/08 05:16:51;;;;;;;;;;;;;;;;;;4977603;28;20404;-81
2023/02/08 05:19:17;;;;;;;;;;;;;;;;;;4975536;28;19926;-79
2023/02/08 05:21:43;;;;;;;;;;;;;;;;;;4975711;28;19914;-78
2023/02/08 05:24:11;;;;;;;;;;;;;;;;;;4968708;28;19929;-79
2023/02/08 05:26:37;;;;;;;;;;;;;;;;;;4974351;28;20688;-77
2023/02/08 05:29:04;;;;;;;;;;;;;;;;;;4966184;28;19934;-80
2023/02/08 05:31:30;;;;;;;;;;;;;;;;;;4960772;28;19925;-77
2023/02/08 05:33:56;;;;;;;;;;;;;;;;;;4944042;28;19933;-78
2023/02/08 05:36:22;;;;;;;;;;;;;;;;;;4952647;28;19965;-76
2023/02/08 05:38:48;;;;;;;;;;;;;;;;;;4963352;28;20440;-77
2023/02/08 05:41:15;;;;;;;;;;;;;;;;;;4988884;28;20318;-77
2023/02/08 05:43:41;;;;;;;;;;;;;;;;;;4975239;28;19939;-77
2023/02/08 05:46:07;;;;;;;;;;;;;;;;;;4968791;28;19994;-77
2023/02/08 05:48:33;;;;;;;;;;;;;;;;;;4959368;28;20328;-77
2023/02/08 05:51:00;;;;;;;;;;;;;;;;;;4969562;28;19918;-78
2023/02/08 05:53:26;;;;;;;;;;;;;;;;;;4966882;28;19940;-77
2023/02/08 05:55:52;;;;;;;;;;;;;;;;;;4969468;28;19929;-76
2023/02/08 05:58:18;;;;;;;;;;;;;;;;;;4987701;28;20284;-77
2023/02/08 06:00:45;;;;;;;;;;;;;;;;;;4968279;28;20000;-77
2023/02/08 06:03:11;;;;;;;;;;;;;;;;;;4952896;28;20617;-77
2023/02/08 06:05:37;;;;;;;;;;;;;;;;;;4957677;28;19922;-77
2023/02/08 06:08:03;;;;;;;;;;;;;;;;;;4957671;28;19922;-77
2023/02/08 06:10:30;;;;;;;;;;;;;;;;;;4972499;28;19977;-77
2023/02/08 06:12:56;;;;;;;;;;;;;;;;;;4967270;28;20007;-76
2023/02/08 06:15:22;;;;;;;;;;;;;;;;;;4948857;28;19930;-76
2023/02/08 06:17:49;;;;;;;;;;;;;;;;;;4975499;28;19933;-78
2023/02/08 06:20:15;;;;;;;;;;;;;;;;;;4966575;28;19929;-77
2023/02/08 06:22:41;;;;;;;;;;;;;;;;;;4975233;28;19918;-77
2023/02/08 06:25:07;;;;;;;;;;;;;;;;;;4973610;28;19963;-78
2023/02/08 06:27:34;;;;;;;;;;;;;;;;;;4965392;28;19929;-78
2023/02/08 06:30:00;;;;;;;;;;;;;;;;;;4963164;28;19929;-80
2023/02/08 06:32:26;;;;;;;;;;;;;;;;;;4963251;28;19922;-79
2023/02/08 06:34:53;;;;;;;;;;;;;;;;;;4970513;28;20370;-78
2023/02/08 06:37:19;;;;;;;;;;;;;;;;;;4967017;28;20577;-78
2023/02/08 06:39:45;;;;;;;;;;;;;;;;;;4957996;28;19926;-78
2023/02/08 06:42:11;;;;;;;;;;;;;;;;;;4961919;28;19922;-78
2023/02/08 06:44:38;;;;;;;;;;;;;;;;;;4961737;28;20377;-78
2023/02/08 06:47:06;;;;;;;;;;;;;;;;;;4979979;28;19921;-79
2023/02/08 06:49:32;;;;;;;;;;;;;;;;;;4975963;28;19941;-76
2023/02/08 06:51:58;;;;;;;;;;;;;;;;;;4964408;28;20373;-74
2023/02/08 06:54:25;;;;;;;;;;;;;;;;;;4966164;28;19921;-74
2023/02/08 06:56:51;;;;;;;;;;;;;;;;;;4971216;28;19976;-75
2023/02/08 06:59:17;;;;;;;;;;;;;;;;;;4962989;28;19996;-76
2023/02/08 07:01:43;;;;;;;;;;;;;;;;;;4946558;28;19921;-76
2023/02/08 07:04:09;;;;;;;;;;;;;;;;;;4964076;28;19922;-75
2023/02/08 07:06:36;;;;;;;;;;;;;;;;;;4960822;28;20024;-76
2023/02/08 07:09:03;;;;;;;;;;;;;;;;;;4958571;28;20460;-77
2023/02/08 07:11:29;;;;;;;;;;;;;;;;;;4977940;28;20325;-77
2023/02/08 07:13:55;;;;;;;;;;;;;;;;;;4954439;28;20440;-76
2023/02/08 07:16:21;;;;;;;;;;;;;;;;;;4974311;28;19926;-77
2023/02/08 07:18:48;;;;;;;;;;;;;;;;;;4973464;28;20017;-76
2023/02/08 07:21:14;;;;;;;;;;;;;;;;;;4976314;28;20440;-76
2023/02/08 07:23:40;;;;;;;;;;;;;;;;;;4960604;28;19933;-75
2023/02/08 07:26:06;;;;;;;;;;;;;;;;;;4977602;28;19982;-76
2023/02/08 07:28:33;;;;;;;;;;;;;;;;;;4961953;28;19922;-76
2023/02/08 07:30:59;;;;;;;;;;;;;;;;;;4959140;28;19918;-75
2023/02/08 07:33:25;;;;;;;;;;;;;;;;;;4968863;28;19914;-75
2023/02/08 07:35:51;;;;;;;;;;;;;;;;;;4975110;28;20289;-76
2023/02/08 07:38:19;;;;;;;;;;;;;;;;;;5002231;28;19922;-76
2023/02/08 07:40:45;;;;;;;;;;;;;;;;;;4970730;28;19968;-77
2023/02/08 07:43:11;;;;;;;;;;;;;;;;;;4986363;28;19921;-76
2023/02/08 07:45:38;;;;;;;;;;;;;;;;;;4986064;28;20389;-76
2023/02/08 07:48:04;;;;;;;;;;;;;;;;;;4975654;28;19988;-77
2023/02/08 07:50:30;;;;;;;;;;;;;;;;;;4968992;28;20020;-76
2023/02/08 07:52:56;;;;;;;;;;;;;;;;;;4999313;28;19918;-76
2023/02/08 07:55:22;;;;;;;;;;;;;;;;;;4973236;28;20015;-75
2023/02/08 07:57:49;;;;;;;;;;;;;;;;;;4970277;28;19920;-76
2023/02/08 08:00:15;;;;;;;;;;;;;;;;;;4970533;28;20341;-76
2023/02/08 08:02:41;;;;;;;;;;;;;;;;;;4959878;28;20424;-76
2023/02/08 08:05:08;;;;;;;;;;;;;;;;;;4970627;28;19918;-76
2023/02/08 08:07:34;;;;;;;;;;;;;;;;;;4968814;28;19937;-75
2023/02/08 08:10:00;;;;;;;;;;;;;;;;;;4963551;28;19922;-75
2023/02/08 08:12:26;;;;;;;;;;;;;;;;;;4958737;28;19925;-76
2023/02/08 08:14:52;;;;;;;;;;;;;;;;;;4966535;28;19921;-75
2023/02/08 08:17:19;;;;;;;;;;;;;;;;;;4958461;28;20469;-75
2023/02/08 08:19:45;;;;;;;;;;;;;;;;;;4957893;28;19926;-75
2023/02/08 08:22:11;;;;;;;;;;;;;;;;;;4950822;28;20361;-75
2023/02/08 08:24:37;;;;;;;;;;;;;;;;;;4939265;28;19926;-76
2023/02/08 08:27:03;;;;;;;;;;;;;;;;;;4938044;28;19922;-75
2023/02/08 08:29:30;;;;;;;;;;;;;;;;;;4942438;28;19918;-75
2023/02/08 08:31:56;;;;;;;;;;;;;;;;;;4952650;28;19928;-75
2023/02/08 08:34:28;;;;;;;;;;;;;;;;;;4947743;28;19925;-75
2023/02/08 08:36:54;;;;;;;;;;;;;;;;;;4976889;28;19941;-75
2023/02/08 08:39:20;;;;;;;;;;;;;;;;;;4944643;28;19949;-75
2023/02/08 08:41:47;;;;;;;;;;;;;;;;;;4964850;28;19979;-75
2023/02/08 08:44:13;;;;;;;;;;;;;;;;;;4943513;28;19930;-75
2023/02/08 08:46:39;;;;;;;;;;;;;;;;;;4942290;28;20513;-75
2023/02/08 08:49:05;;;;;;;;;;;;;;;;;;4940226;28;19922;-75
2023/02/08 08:51:34;;;;;;;;;;;;;;;;;;4926022;28;19915;-76
2023/02/08 08:54:00;;;;;;;;;;;;;;;;;;4952569;28;19918;-75
2023/02/08 08:56:26;;;;;;;;;;;;;;;;;;4963943;28;19949;-76
2023/02/08 08:58:52;;;;;;;;;;;;;;;;;;4963753;28;19962;-75
2023/02/08 09:01:19;;;;;;;;;;;;;;;;;;4937249;28;19918;-76
2023/02/08 09:03:45;;;;;;;;;;;;;;;;;;4957275;28;19925;-76
2023/02/08 09:06:11;;;;;;;;;;;;;;;;;;4944176;28;19926;-76
2023/02/08 09:08:37;;;;;;;;;;;;;;;;;;4945286;28;19918;-77
2023/02/08 09:11:04;;;;;;;;;;;;;;;;;;4948557;28;19929;-77
2023/02/08 09:13:30;;;;;;;;;;;;;;;;;;4958701;28;19918;-76
2023/02/08 09:15:56;;;;;;;;;;;;;;;;;;4936985;28;19922;-76
2023/02/08 09:18:23;;;;;;;;;;;;;;;;;;4968627;28;19970;-76
2023/02/08 09:20:49;;;;;;;;;;;;;;;;;;4942517;28;19929;-76
2023/02/08 09:23:15;;;;;;;;;;;;;;;;;;4965229;28;19992;-76
2023/02/08 09:25:41;;;;;;;;;;;;;;;;;;4943613;28;19926;-76
2023/02/08 09:28:08;;;;;;;;;;;;;;;;;;4945677;28;19918;-77
2023/02/08 09:30:34;;;;;;;;;;;;;;;;;;4937161;28;20042;-76
2023/02/08 09:33:00;;;;;;;;;;;;;;;;;;4952683;28;19930;-76
2023/02/08 09:35:26;;;;;;;;;;;;;;;;;;4952317;28;19934;-76
2023/02/08 09:37:54;;;;;;;;;;;;;;;;;;4932531;28;19961;-76
2023/02/08 09:40:20;;;;;;;;;;;;;;;;;;4957690;28;19953;-76
2023/02/08 09:42:46;;;;;;;;;;;;;;;;;;4940457;28;19982;-76
2023/02/08 09:45:13;;;;;;;;;;;;;;;;;;4950469;28;19923;-76
2023/02/08 09:47:42;;;;;;;;;;;;;;;;;;4969611;28;19949;-76
2023/02/08 09:50:08;;;;;;;;;;;;;;;;;;4942716;28;19933;-76
2023/02/08 09:52:34;;;;;;;;;;;;;;;;;;4969541;28;19918;-76
2023/02/08 09:55:01;;;;;;;;;;;;;;;;;;4951407;28;20326;-76
2023/02/08 09:57:27;;;;;;;;;;;;;;;;;;4953696;28;19922;-76
2023/02/08 09:59:53;;;;;;;;;;;;;;;;;;4955703;28;19926;-76
2023/02/08 10:02:19;;;;;;;;;;;;;;;;;;4961108;28;20393;-77
2023/02/08 10:04:45;;;;;;;;;;;;;;;;;;4928265;28;20353;-77
2023/02/08 10:07:12;;;;;;;;;;;;;;;;;;4967884;28;20304;-77
2023/02/08 10:09:38;;;;;;;;;;;;;;;;;;4959720;28;19918;-76
2023/02/08 10:12:04;;;;;;;;;;;;;;;;;;4964573;28;19940;-76
2023/02/08 10:14:31;;;;;;;;;;;;;;;;;;4961432;28;19914;-75
2023/02/08 10:16:57;;;;;;;;;;;;;;;;;;4957878;28;19945;-76
2023/02/08 10:19:23;;;;;;;;;;;;;;;;;;4941464;28;19914;-76
2023/02/08 10:21:49;;;;;;;;;;;;;;;;;;4942368;28;19933;-76
2023/02/08 10:24:16;;;;;;;;;;;;;;;;;;4942325;28;20343;-76
2023/02/08 10:26:42;;;;;;;;;;;;;;;;;;4943649;28;19930;-77
2023/02/08 10:29:08;;;;;;;;;;;;;;;;;;4934695;28;19950;-76
2023/02/08 10:31:35;;;;;;;;;;;;;;;;;;4941739;28;20426;-76
2023/02/08 10:34:01;;;;;;;;;;;;;;;;;;4947160;28;20370;-76
2023/02/08 10:36:27;;;;;;;;;;;;;;;;;;4945103;28;20025;-76
2023/02/08 10:38:53;;;;;;;;;;;;;;;;;;4947223;28;20256;-76
2023/02/08 10:41:20;;;;;;;;;;;;;;;;;;4953938;28;20846;-75
2023/02/08 10:43:46;;;;;;;;;;;;;;;;;;4946850;28;19918;-76
2023/02/08 10:46:12;;;;;;;;;;;;;;;;;;4962177;28;19926;-76
2023/02/08 10:48:38;;;;;;;;;;;;;;;;;;4950012;28;19922;-74
2023/02/08 10:51:05;;;;;;;;;;;;;;;;;;4955056;28;20008;-76
2023/02/08 10:53:31;;;;;;;;;;;;;;;;;;4955915;28;20446;-77
2023/02/08 10:55:57;;;;;;;;;;;;;;;;;;4957567;28;19930;-77
2023/02/08 10:58:24;;;;;;;;;;;;;;;;;;4934396;28;19914;-76
2023/02/08 11:00:51;;;;;;;;;;;;;;;;;;4952606;28;19929;-76
2023/02/08 11:03:17;;;;;;;;;;;;;;;;;;4959522;28;19918;-76
2023/02/08 11:05:44;;;;;;;;;;;;;;;;;;4951098;28;19921;-77
2023/02/08 11:08:10;;;;;;;;;;;;;;;;;;4951941;28;19940;-76
2023/02/08 11:10:37;;;;;;;;;;;;;;;;;;4967892;28;19925;-75
2023/02/08 11:13:04;;;;;;;;;;;;;;;;;;4968820;28;19934;-75
2023/02/08 11:15:30;;;;;;;;;;;;;;;;;;4951746;28;20271;-76
2023/02/08 11:17:57;;;;;;;;;;;;;;;;;;4949315;28;19934;-76
2023/02/08 11:20:23;;;;;;;;;;;;;;;;;;4950979;28;19925;-74
2023/02/08 11:22:49;;;;;;;;;;;;;;;;;;4947078;28;20601;-77
2023/02/08 11:25:16;;;;;;;;;;;;;;;;;;4989051;28;19926;-76
2023/02/08 11:27:43;;;;;;;;;;;;;;;;;;4968304;28;19930;-75
2023/02/08 11:30:10;;;;;;;;;;;;;;;;;;4970700;28;19922;-74
2023/02/08 11:32:36;;;;;;;;;;;;;;;;;;4941256;28;19958;-77
2023/02/08 11:35:03;;;;;;;;;;;;;;;;;;4954688;28;19985;-75
2023/02/08 11:37:29;;;;;;;;;;;;;;;;;;4938396;28;19929;-75
2023/02/08 11:39:55;;;;;;;;;;;;;;;;;;4957756;28;19927;-77
2023/02/08 11:42:21;;;;;;;;;;;;;;;;;;4960973;28;19914;-75
2023/02/08 11:44:48;;;;;;;;;;;;;;;;;;4940912;28;19950;-75
2023/02/08 11:47:14;;;;;;;;;;;;;;;;;;4938891;28;20302;-75
2023/02/08 11:49:40;;;;;;;;;;;;;;;;;;4935889;28;19917;-76
2023/02/08 11:52:07;;;;;;;;;;;;;;;;;;4943033;28;19925;-76
2023/02/08 11:54:33;;;;;;;;;;;;;;;;;;4956465;28;19927;-80
2023/02/08 11:56:59;;;;;;;;;;;;;;;;;;4938451;28;19930;-76
2023/02/08 11:59:27;;;;;;;;;;;;;;;;;;4954773;28;19922;-76
2023/02/08 12:01:54;;;;;;;;;;;;;;;;;;4941071;28;20689;-76
2023/02/08 12:04:21;;;;;;;;;;;;;;;;;;4943021;28;19917;-75
2023/02/08 12:06:47;;;;;;;;;;;;;;;;;;4953839;28;20071;-75
2023/02/08 12:09:13;;;;;;;;;;;;;;;;;;4963117;28;19980;-76
2023/02/08 12:11:40;;;;;;;;;;;;;;;;;;4962568;28;20390;-76
2023/02/08 12:14:06;;;;;;;;;;;;;;;;;;4950170;28;19954;-75
2023/02/08 12:16:34;;;;;;;;;;;;;;;;;;4951269;28;19961;-75
2023/02/08 12:19:01;;;;;;;;;;;;;;;;;;4931957;28;19934;-76
2023/02/08 12:21:30;;;;;;;;;;;;;;;;;;4953359;28;19945;-76
2023/02/08 12:23:57;;;;;;;;;;;;;;;;;;4938736;28;19922;-76
2023/02/08 12:26:23;;;;;;;;;;;;;;;;;;4935266;28;19923;-76
2023/02/08 12:28:49;;;;;;;;;;;;;;;;;;4939311;28;19922;-76
2023/02/08 12:31:16;;;;;;;;;;;;;;;;;;4942889;28;20743;-76
2023/02/08 12:33:42;;;;;;;;;;;;;;;;;;4942841;28;19958;-75
2023/02/08 12:36:08;;;;;;;;;;;;;;;;;;4939759;28;19965;-76
2023/02/08 12:41:19;;;;;;;;;;;;;;;;;;4952444;28;19918;-76
2023/02/08 12:43:46;;;;;;;;;;;;;;;;;;4945769;28;19962;-76
2023/02/08 12:46:12;;;;;;;;;;;;;;;;;;4950722;28;19987;-75
2023/02/08 12:48:38;;;;;;;;;;;;;;;;;;4951571;28;19957;-74
2023/02/08 12:51:04;;;;;;;;;;;;;;;;;;4963803;28;19927;-75
2023/02/08 12:53:30;;;;;;;;;;;;;;;;;;4935814;28;20017;-74
2023/02/08 12:55:57;;;;;;;;;;;;;;;;;;4946926;28;19978;-75
2023/02/08 12:58:23;;;;;;;;;;;;;;;;;;4969410;28;19919;-75
2023/02/08 13:00:49;;;;;;;;;;;;;;;;;;4949643;28;20625;-75
2023/02/08 13:03:15;;;;;;;;;;;;;;;;;;4955381;28;20629;-74
2023/02/08 13:05:42;;;;;;;;;;;;;;;;;;4944020;28;19973;-78
2023/02/08 13:08:08;;;;;;;;;;;;;;;;;;4940685;28;20429;-77
2023/02/08 13:10:34;;;;;;;;;;;;;;;;;;4939939;28;19965;-78
2023/02/08 13:13:00;;;;;;;;;;;;;;;;;;4940131;28;19922;-78
2023/02/08 13:15:26;;;;;;;;;;;;;;;;;;4939837;28;19934;-77
2023/02/08 13:17:53;;;;;;;;;;;;;;;;;;4951593;28;19929;-78
2023/02/08 13:20:19;;;;;;;;;;;;;;;;;;4976345;28;19933;-77
2023/02/08 13:22:45;;;;;;;;;;;;;;;;;;4975678;28;19921;-78
2023/02/08 13:25:11;;;;;;;;;;;;;;;;;;4966273;28;19933;-77
2023/02/08 13:27:37;;;;;;;;;;;;;;;;;;4978203;28;19917;-77
2023/02/08 13:30:04;;;;;;;;;;;;;;;;;;4979481;28;19925;-78
2023/02/08 13:32:30;;;;;;;;;;;;;;;;;;4980323;28;19948;-78
2023/02/08 13:34:56;;;;;;;;;;;;;;;;;;4990590;28;20012;-78
2023/02/08 13:37:22;;;;;;;;;;;;;;;;;;4977679;28;19930;-77
2023/02/08 13:39:49;;;;;;;;;;;;;;;;;;4973352;28;19921;-78
2023/02/08 13:42:15;;;;;;;;;;;;;;;;;;4971196;28;19917;-78
2023/02/08 13:44:41;;;;;;;;;;;;;;;;;;4970258;28;19918;-78
2023/02/08 13:47:07;;;;;;;;;;;;;;;;;;4973381;28;19933;-78
2023/02/08 13:49:34;;;;;;;;;;;;;;;;;;4986217;28;19928;-77
2023/02/08 13:52:01;;;;;;;;;;;;;;;;;;4975955;28;19917;-78
2023/02/08 13:54:27;;;;;;;;;;;;;;;;;;4993793;28;19925;-78
2023/02/08 13:56:53;;;;;;;;;;;;;;;;;;4976650;28;21632;-77
2023/02/08 13:59:19;;;;;;;;;;;;;;;;;;4996612;28;19925;-78
2023/02/08 14:01:46;;;;;;;;;;;;;;;;;;4977955;28;19996;-78
2023/02/08 14:04:12;;;;;;;;;;;;;;;;;;4980411;28;19991;-78
2023/02/08 14:06:38;;;;;;;;;;;;;;;;;;4993036;28;20016;-78
2023/02/08 14:09:05;;;;;;;;;;;;;;;;;;4995645;28;19928;-78
2023/02/08 14:11:31;;;;;;;;;;;;;;;;;;4995419;28;20293;-77
2023/02/08 14:13:58;;;;;;;;;;;;;;;;;;4983351;28;20537;-78
2023/02/08 14:16:24;;;;;;;;;;;;;;;;;;4989218;28;19930;-78
2023/02/08 14:18:50;;;;;;;;;;;;;;;;;;4965497;28;19941;-78
2023/02/08 14:21:17;;;;;;;;;;;;;;;;;;4975162;28;19933;-78
2023/02/08 14:23:43;;;;;;;;;;;;;;;;;;4976882;28;19924;-78
2023/02/08 14:26:09;;;;;;;;;;;;;;;;;;4977009;28;19921;-78
2023/02/08 14:28:37;;;;;;;;;;;;;;;;;;4987735;28;19918;-78
2023/02/08 14:31:03;;;;;;;;;;;;;;;;;;4980441;28;20377;-78
2023/02/08 14:33:29;;;;;;;;;;;;;;;;;;4978533;28;19924;-79
2023/02/08 14:35:56;;;;;;;;;;;;;;;;;;4994341;28;19926;-78
2023/02/08 14:38:22;;;;;;;;;;;;;;;;;;4976169;28;20618;-77
2023/02/08 14:40:48;;;;;;;;;;;;;;;;;;4975047;28;19922;-77
2023/02/08 14:43:15;;;;;;;;;;;;;;;;;;4980121;28;19917;-77
2023/02/08 14:45:41;;;;;;;;;;;;;;;;;;4977794;28;19933;-78
2023/02/08 14:48:07;;;;;;;;;;;;;;;;;;4973883;28;19973;-78
2023/02/08 14:50:33;;;;;;;;;;;;;;;;;;4979156;28;19917;-78
2023/02/08 14:53:00;;;;;;;;;;;;;;;;;;4975055;28;19924;-78
2023/02/08 14:55:26;;;;;;;;;;;;;;;;;;4981206;28;19917;-78
2023/02/08 14:57:52;;;;;;;;;;;;;;;;;;4976897;28;19922;-77
2023/02/08 15:00:19;;;;;;;;;;;;;;;;;;4967458;28;19979;-78
2023/02/08 15:02:45;;;;;;;;;;;;;;;;;;4986828;28;20410;-78
2023/02/08 15:05:11;;;;;;;;;;;;;;;;;;4982030;28;19952;-77
2023/02/08 15:07:38;;;;;;;;;;;;;;;;;;4974867;28;19922;-78
2023/02/08 15:10:04;;;;;;;;;;;;;;;;;;4981800;28;19928;-77
2023/02/08 15:12:30;;;;;;;;;;;;;;;;;;4993705;28;19961;-77
2023/02/08 15:14:57;;;;;;;;;;;;;;;;;;4979852;28;20706;-77
2023/02/08 15:17:23;;;;;;;;;;;;;;;;;;4977392;28;19929;-77
2023/02/08 15:19:49;;;;;;;;;;;;;;;;;;4995620;28;19921;-78
2023/02/08 15:22:15;;;;;;;;;;;;;;;;;;4991634;28;19992;-79
2023/02/08 15:24:41;;;;;;;;;;;;;;;;;;4996029;28;21210;-79
2023/02/08 15:27:08;;;;;;;;;;;;;;;;;;4994760;28;20021;-78
2023/02/08 15:29:34;;;;;;;;;;;;;;;;;;4996506;28;19927;-77
2023/02/08 15:32:00;;;;;;;;;;;;;;;;;;4981835;28;19924;-78
2023/02/08 15:34:26;;;;;;;;;;;;;;;;;;5002127;28;19929;-78
2023/02/08 15:36:53;;;;;;;;;;;;;;;;;;4990474;28;19972;-78
2023/02/08 15:39:19;;;;;;;;;;;;;;;;;;4981984;28;19921;-77
2023/02/08 15:41:45;;;;;;;;;;;;;;;;;;4999661;28;19972;-77
2023/02/08 15:44:11;;;;;;;;;;;;;;;;;;5000604;28;19964;-77
2023/02/08 15:46:37;;;;;;;;;;;;;;;;;;4976301;28;19917;-77
2023/02/08 15:49:04;;;;;;;;;;;;;;;;;;4999386;28;19922;-79
2023/02/08 15:51:31;;;;;;;;;;;;;;;;;;4999099;28;19924;-79
2023/02/08 15:53:57;;;;;;;;;;;;;;;;;;4978702;28;20389;-77
2023/02/08 15:56:23;;;;;;;;;;;;;;;;;;4979460;28;19937;-78
2023/02/08 15:58:49;;;;;;;;;;;;;;;;;;4998037;28;19922;-77
2023/02/08 16:01:15;;;;;;;;;;;;;;;;;;4975847;28;19925;-77
2023/02/08 16:03:42;;;;;;;;;;;;;;;;;;4983363;28;19957;-77
2023/02/08 16:06:09;;;;;;;;;;;;;;;;;;4996723;28;19964;-77
2023/02/08 16:08:40;;;;;;;;;;;;;;;;;;4999054;28;19921;-77
2023/02/08 16:11:06;;;;;;;;;;;;;;;;;;4980623;28;19924;-77
2023/02/08 16:13:33;;;;;;;;;;;;;;;;;;4978202;28;19929;-77
2023/02/08 16:16:01;;;;;;;;;;;;;;;;;;4972483;28;19992;-77
2023/02/08 16:18:27;;;;;;;;;;;;;;;;;;4988524;28;19940;-76
2023/02/08 16:20:53;;;;;;;;;;;;;;;;;;4972602;28;19922;-78
2023/02/08 16:23:19;;;;;;;;;;;;;;;;;;4975361;28;20031;-76
2023/02/08 16:25:48;;;;;;;;;;;;;;;;;;4992758;28;20331;-77
2023/02/08 16:28:14;;;;;;;;;;;;;;;;;;4980852;28;19948;-77
2023/02/08 16:30:41;;;;;;;;;;;;;;;;;;4978497;28;19914;-78
2023/02/08 16:33:07;;;;;;;;;;;;;;;;;;4997835;28;19922;-76
2023/02/08 16:35:33;;;;;;;;;;;;;;;;;;4982883;28;19921;-77
2023/02/08 16:38:01;;;;;;;;;;;;;;;;;;4976511;28;19925;-77
2023/02/08 16:40:29;;;;;;;;;;;;;;;;;;4976441;28;19921;-77
2023/02/08 16:42:55;;;;;;;;;;;;;;;;;;4994752;28;19921;-76
2023/02/08 16:45:22;;;;;;;;;;;;;;;;;;4977583;28;19918;-77